createdAt,value
2018-09-17T00:01:17.487Z,97.10
2018-09-17T00:03:46.255Z,97.20
2018-09-17T00:06:15.163Z,97.20
2018-09-17T00:08:43.973Z,97.30
2018-09-17T00:11:12.806Z,97.40
2018-09-17T00:13:41.704Z,97.50
2018-09-17T00:16:10.653Z,97.70
2018-09-17T00:18:39.524Z,97.60
2018-09-17T00:21:08.308Z,97.40
2018-09-17T00:23:37.209Z,97.20
2018-09-17T00:26:05.968Z,97.80
2018-09-17T00:28:34.873Z,97.80
2018-09-17T00:31:03.609Z,98.40
2018-09-17T00:33:32.394Z,98.10
2018-09-17T00:36:01.122Z,98.20
2018-09-17T00:38:29.957Z,98.20
2018-09-17T00:40:58.809Z,98.20
2018-09-17T00:43:27.628Z,98.30
2018-09-17T00:45:56.570Z,98.30
2018-09-17T00:48:25.298Z,98.40
2018-09-17T00:50:54.259Z,98.50
2018-09-17T00:53:23.081Z,98.50
2018-09-17T00:55:51.767Z,98.60
2018-09-17T00:58:20.577Z,98.80
2018-09-17T01:00:49.285Z,98.90
2018-09-17T01:03:18.281Z,99.00
2018-09-17T01:05:47.401Z,99.10
2018-09-17T01:08:23.052Z,99.10
2018-09-17T01:10:51.814Z,99.20
2018-09-17T01:13:20.747Z,99.40
2018-09-17T01:15:49.927Z,99.20
2018-09-17T01:18:18.810Z,99.30
2018-09-17T01:20:47.529Z,98.90
2018-09-17T01:23:16.272Z,98.80
2018-09-17T01:25:45.131Z,98.90
2018-09-17T01:28:13.859Z,99.90
2018-09-17T01:30:42.585Z,99.90
2018-09-17T01:33:11.397Z,99.90
2018-09-17T01:35:40.209Z,99.90
2018-09-17T01:38:09.386Z,99.90
2018-09-17T01:40:38.197Z,99.90
2018-09-17T01:43:07.149Z,99.90
2018-09-17T01:48:31.261Z,99.90
2018-09-17T01:51:00.015Z,99.90
2018-09-17T01:53:28.877Z,99.90
2018-09-17T01:55:57.773Z,99.90
2018-09-17T01:58:26.545Z,99.90
2018-09-17T02:00:55.375Z,99.90
2018-09-17T02:03:24.181Z,99.90
2018-09-17T02:05:54.901Z,99.90
2018-09-17T02:08:23.736Z,99.90
2018-09-17T02:10:52.724Z,99.90
2018-09-17T02:13:21.597Z,99.90
2018-09-17T02:15:53.809Z,99.90
2018-09-17T02:18:22.661Z,99.90
2018-09-17T02:20:51.426Z,99.90
2018-09-17T02:23:20.326Z,99.90
2018-09-17T02:25:49.269Z,99.90
2018-09-17T02:28:18.077Z,99.90
2018-09-17T02:30:46.878Z,99.90
2018-09-17T02:33:15.705Z,99.90
2018-09-17T02:35:45.037Z,99.90
2018-09-17T02:38:13.855Z,99.90
2018-09-17T02:40:42.569Z,99.90
2018-09-17T02:43:11.365Z,99.90
2018-09-17T02:45:40.205Z,99.90
2018-09-17T02:48:09.141Z,99.90
2018-09-17T02:50:37.869Z,99.90
2018-09-17T02:53:06.574Z,99.90
2018-09-17T02:55:35.290Z,99.90
2018-09-17T02:58:04.066Z,99.90
2018-09-17T03:00:32.877Z,99.90
2018-09-17T03:03:01.653Z,99.90
2018-09-17T03:05:30.449Z,99.90
2018-09-17T03:07:59.277Z,99.90
2018-09-17T03:10:28.019Z,99.90
2018-09-17T03:12:56.746Z,99.90
2018-09-17T03:15:36.768Z,99.90
2018-09-17T03:18:05.513Z,99.90
2018-09-17T03:20:34.242Z,99.90
2018-09-17T03:23:03.058Z,99.90
2018-09-17T03:25:31.894Z,99.90
2018-09-17T03:28:00.629Z,99.90
2018-09-17T03:30:29.673Z,99.90
2018-09-17T03:32:58.558Z,99.90
2018-09-17T03:35:27.353Z,99.90
2018-09-17T03:38:01.617Z,99.90
2018-09-17T03:40:30.472Z,99.90
2018-09-17T03:42:59.473Z,99.90
2018-09-17T03:45:28.349Z,99.90
2018-09-17T03:47:57.074Z,99.90
2018-09-17T03:50:25.907Z,99.90
2018-09-17T03:52:54.869Z,99.90
2018-09-17T03:55:23.591Z,99.90
2018-09-17T03:57:52.432Z,99.90
2018-09-17T04:00:21.205Z,99.90
2018-09-17T04:02:49.961Z,99.90
2018-09-17T04:05:18.850Z,99.90
2018-09-17T04:07:47.626Z,99.90
2018-09-17T04:10:16.569Z,99.90
2018-09-17T04:12:45.554Z,99.90
2018-09-17T04:15:14.290Z,99.90
2018-09-17T04:17:43.109Z,99.90
2018-09-17T04:20:13.072Z,99.90
2018-09-17T04:22:41.931Z,99.90
2018-09-17T04:25:10.825Z,99.90
2018-09-17T04:27:39.798Z,99.90
2018-09-17T04:30:08.781Z,99.90
2018-09-17T04:32:37.622Z,99.90
2018-09-17T04:35:07.334Z,99.90
2018-09-17T04:37:37.421Z,99.90
2018-09-17T04:40:07.174Z,99.90
2018-09-17T04:42:36.957Z,99.90
2018-09-17T04:45:05.737Z,99.90
2018-09-17T04:47:35.137Z,99.90
2018-09-17T04:50:04.020Z,99.90
2018-09-17T04:52:33.833Z,99.90
2018-09-17T04:55:02.850Z,99.90
2018-09-17T04:57:31.929Z,99.90
2018-09-17T05:00:00.805Z,99.90
2018-09-17T05:02:29.637Z,99.90
2018-09-17T05:04:58.393Z,99.90
2018-09-17T05:07:28.313Z,99.90
2018-09-17T05:09:57.369Z,99.90
2018-09-17T05:12:26.339Z,99.90
2018-09-17T05:14:55.162Z,99.90
2018-09-17T05:17:23.965Z,99.90
2018-09-17T05:19:52.714Z,99.90
2018-09-17T05:22:21.405Z,99.90
2018-09-17T05:24:50.277Z,99.90
2018-09-17T05:27:19.101Z,99.90
2018-09-17T05:29:47.911Z,99.90
2018-09-17T05:32:16.713Z,99.90
2018-09-17T05:34:52.048Z,99.90
2018-09-17T05:37:21.147Z,99.90
2018-09-17T05:39:50.058Z,99.90
2018-09-17T05:42:18.837Z,99.90
2018-09-17T05:44:47.789Z,99.90
2018-09-17T05:47:18.653Z,99.90
2018-09-17T05:49:47.452Z,99.90
2018-09-17T05:52:16.304Z,99.90
2018-09-17T05:54:45.117Z,99.90
2018-09-17T05:57:14.037Z,99.90
2018-09-17T05:59:42.832Z,99.90
2018-09-17T06:02:11.667Z,99.90
2018-09-17T06:04:40.566Z,99.90
2018-09-17T06:07:09.439Z,99.90
2018-09-17T06:09:38.190Z,99.90
2018-09-17T06:12:06.942Z,99.90
2018-09-17T06:14:35.722Z,99.90
2018-09-17T06:17:04.710Z,99.90
2018-09-17T06:19:33.536Z,99.90
2018-09-17T06:22:02.258Z,99.90
2018-09-17T06:24:31.146Z,99.90
2018-09-17T06:27:00.110Z,99.90
2018-09-17T06:29:28.929Z,99.90
2018-09-17T06:31:57.811Z,99.90
2018-09-17T06:34:26.566Z,99.90
2018-09-17T06:39:24.446Z,99.90
2018-09-17T06:41:53.353Z,99.90
2018-09-17T06:44:22.282Z,99.90
2018-09-17T06:46:51.147Z,99.90
2018-09-17T06:49:20.934Z,99.90
2018-09-17T06:51:49.749Z,99.90
2018-09-17T06:54:18.509Z,99.90
2018-09-17T06:56:47.365Z,99.90
2018-09-17T06:59:16.286Z,99.90
2018-09-17T07:01:45.070Z,99.90
2018-09-17T07:04:13.811Z,99.90
2018-09-17T07:06:42.645Z,99.90
2018-09-17T07:09:12.226Z,99.90
2018-09-17T07:11:41.200Z,99.90
2018-09-17T07:14:10.476Z,99.90
2018-09-17T07:16:39.369Z,99.90
2018-09-17T07:19:08.130Z,99.90
2018-09-17T07:21:36.941Z,99.90
2018-09-17T07:24:05.786Z,99.90
2018-09-17T07:26:34.669Z,99.90
2018-09-17T07:29:03.536Z,99.90
2018-09-17T07:31:32.298Z,99.90
2018-09-17T07:34:01.274Z,99.90
2018-09-17T07:36:30.225Z,99.90
2018-09-17T07:38:59.087Z,99.90
2018-09-17T07:41:34.106Z,99.90
2018-09-17T07:44:02.814Z,99.90
2018-09-17T07:46:31.522Z,99.90
2018-09-17T07:49:00.431Z,99.90
2018-09-17T07:51:30.106Z,99.90
2018-09-17T07:53:59.020Z,99.90
2018-09-17T07:56:28.300Z,99.90
2018-09-17T07:58:57.155Z,99.90
2018-09-17T08:01:25.906Z,99.90
2018-09-17T08:03:54.937Z,99.90
2018-09-17T08:06:23.762Z,99.90
2018-09-17T08:08:53.554Z,99.90
2018-09-17T08:11:22.391Z,99.90
2018-09-17T08:13:51.253Z,99.90
2018-09-17T08:16:20.454Z,99.90
2018-09-17T08:18:49.342Z,99.90
2018-09-17T08:21:18.193Z,99.90
2018-09-17T08:23:46.966Z,99.90
2018-09-17T08:26:16.037Z,99.90
2018-09-17T08:28:44.725Z,99.90
2018-09-17T08:31:13.526Z,99.90
2018-09-17T08:33:42.280Z,99.90
2018-09-17T08:36:11.046Z,99.90
2018-09-17T08:38:40.181Z,99.90
2018-09-17T08:41:09.175Z,99.90
2018-09-17T08:43:38.085Z,99.90
2018-09-17T08:46:07.149Z,99.90
2018-09-17T08:48:35.955Z,99.90
2018-09-17T08:51:04.775Z,99.90
2018-09-17T08:53:33.505Z,99.90
2018-09-17T08:56:07.700Z,99.90
2018-09-17T08:58:41.981Z,99.90
2018-09-17T09:01:16.185Z,99.90
2018-09-17T09:03:50.321Z,99.80
2018-09-17T09:06:20.142Z,99.90
2018-09-17T09:08:49.349Z,99.90
2018-09-17T09:11:21.507Z,99.60
2018-09-17T09:13:50.322Z,99.60
2018-09-17T09:16:19.089Z,99.40
2018-09-17T09:18:47.916Z,99.20
2018-09-17T09:21:16.789Z,99.10
2018-09-17T09:23:45.849Z,99.10
2018-09-17T09:26:14.762Z,99.10
2018-09-17T09:28:43.593Z,98.90
2018-09-17T09:31:12.468Z,98.60
2018-09-17T09:33:41.433Z,98.50
2018-09-17T09:36:10.254Z,98.30
2018-09-17T09:38:39.046Z,98.10
2018-09-17T09:41:07.925Z,97.70
2018-09-17T09:43:36.808Z,97.50
2018-09-17T09:46:05.907Z,97.70
2018-09-17T09:48:34.792Z,97.30
2018-09-17T09:51:03.717Z,97.10
2018-09-17T09:53:32.458Z,96.70
2018-09-17T09:56:01.239Z,97.00
2018-09-17T09:58:30.106Z,97.00
2018-09-17T10:01:04.277Z,96.50
2018-09-17T10:03:38.746Z,96.20
2018-09-17T10:06:07.546Z,96.00
2018-09-17T10:08:40.568Z,96.00
2018-09-17T10:11:14.813Z,95.20
2018-09-17T10:13:49.131Z,95.20
2018-09-17T10:16:19.317Z,95.50
2018-09-17T10:18:53.656Z,94.80
2018-09-17T10:21:22.888Z,95.20
2018-09-17T10:23:51.843Z,94.80
2018-09-17T10:26:20.821Z,93.80
2018-09-17T10:28:49.561Z,93.60
2018-09-17T10:31:18.432Z,93.20
2018-09-17T10:33:47.120Z,93.30
2018-09-17T10:36:15.965Z,92.90
2018-09-17T10:38:44.727Z,92.90
2018-09-17T10:41:13.741Z,92.90
2018-09-17T10:43:42.588Z,92.20
2018-09-17T10:46:11.557Z,92.80
2018-09-17T10:48:40.331Z,92.80
2018-09-17T10:51:09.134Z,92.50
2018-09-17T10:53:37.972Z,91.60
2018-09-17T10:56:07.073Z,92.60
2018-09-17T10:58:35.765Z,91.70
2018-09-17T11:01:10.555Z,91.00
2018-09-17T11:03:39.415Z,91.60
2018-09-17T11:06:08.309Z,92.10
2018-09-17T11:08:37.309Z,91.50
2018-09-17T11:11:06.665Z,91.50
2018-09-17T11:13:35.453Z,90.20
2018-09-17T11:16:04.331Z,90.40
2018-09-17T11:18:33.320Z,88.80
2018-09-17T11:21:02.336Z,89.20
2018-09-17T11:23:31.209Z,88.90
2018-09-17T11:26:00.205Z,90.10
2018-09-17T11:28:29.152Z,88.80
2018-09-17T11:31:02.073Z,88.60
2018-09-17T11:33:31.018Z,89.60
2018-09-17T11:35:59.846Z,86.60
2018-09-17T11:38:28.689Z,84.70
2018-09-17T11:40:57.630Z,86.30
2018-09-17T11:43:26.506Z,84.40
2018-09-17T11:45:55.419Z,85.80
2018-09-17T11:48:24.464Z,86.20
2018-09-17T11:50:53.286Z,82.90
2018-09-17T11:53:22.050Z,86.00
2018-09-17T11:55:50.825Z,85.70
2018-09-17T11:58:19.669Z,84.40
2018-09-17T12:00:54.299Z,80.00
2018-09-17T12:03:28.489Z,81.80
2018-09-17T12:05:59.641Z,79.60
2018-09-17T12:08:28.544Z,80.70
2018-09-17T12:10:57.989Z,81.20
2018-09-17T12:13:26.788Z,79.00
2018-09-17T12:15:55.554Z,80.30
2018-09-17T12:18:25.361Z,77.00
2018-09-17T12:20:54.082Z,79.60
2018-09-17T12:23:22.925Z,79.80
2018-09-17T12:25:51.714Z,79.10
2018-09-17T12:28:20.427Z,77.60
2018-09-17T12:30:49.365Z,76.40
2018-09-17T12:33:18.385Z,77.10
2018-09-17T12:35:47.313Z,78.00
2018-09-17T12:38:16.246Z,77.40
2018-09-17T12:40:45.240Z,79.00
2018-09-17T12:43:14.061Z,76.80
2018-09-17T12:45:42.833Z,78.90
2018-09-17T12:48:11.897Z,75.10
2018-09-17T12:50:40.841Z,71.80
2018-09-17T12:53:09.745Z,71.60
2018-09-17T12:55:38.718Z,74.80
2018-09-17T12:58:07.609Z,72.10
2018-09-17T13:00:36.300Z,75.60
2018-09-17T13:03:05.171Z,71.00
2018-09-17T13:05:34.272Z,74.70
2018-09-17T13:08:03.140Z,68.90
2018-09-17T13:10:37.393Z,70.10
2018-09-17T13:13:06.215Z,68.00
2018-09-17T13:15:39.737Z,71.90
2018-09-17T13:18:08.585Z,68.40
2018-09-17T13:20:37.433Z,70.80
2018-09-17T13:23:06.293Z,69.80
2018-09-17T13:25:35.128Z,69.90
2018-09-17T13:28:04.150Z,70.90
2018-09-17T13:30:32.985Z,65.90
2018-09-17T13:33:01.814Z,65.20
2018-09-17T13:35:30.605Z,65.50
2018-09-17T13:38:01.510Z,65.40
2018-09-17T13:40:30.513Z,66.70
2018-09-17T13:42:59.444Z,66.30
2018-09-17T13:45:29.372Z,66.70
2018-09-17T13:47:59.464Z,66.50
2018-09-17T13:50:28.219Z,65.40
2018-09-17T13:52:57.222Z,61.40
2018-09-17T13:55:26.156Z,63.30
2018-09-17T13:57:55.240Z,64.60
2018-09-17T14:00:24.399Z,63.60
2018-09-17T14:02:53.437Z,65.30
2018-09-17T14:05:22.385Z,64.30
2018-09-17T14:07:51.319Z,63.00
2018-09-17T14:10:20.223Z,61.90
2018-09-17T14:12:48.941Z,63.50
2018-09-17T14:15:17.849Z,63.70
2018-09-17T14:17:46.821Z,63.50
2018-09-17T14:20:15.778Z,62.70
2018-09-17T14:22:44.589Z,62.50
2018-09-17T14:25:13.368Z,63.00
2018-09-17T14:27:42.174Z,64.50
2018-09-17T14:30:11.033Z,65.00
2018-09-17T14:32:45.200Z,62.50
2018-09-17T14:35:14.176Z,62.10
2018-09-17T14:37:43.023Z,63.30
2018-09-17T14:40:11.827Z,61.40
2018-09-17T14:42:40.718Z,61.60
2018-09-17T14:45:09.593Z,60.50
2018-09-17T14:47:38.458Z,62.80
2018-09-17T14:50:07.417Z,61.40
2018-09-17T14:52:36.256Z,62.20
2018-09-17T14:55:05.549Z,63.00
2018-09-17T14:57:34.358Z,60.80
2018-09-17T15:00:03.254Z,62.60
2018-09-17T15:02:32.137Z,61.50
2018-09-17T15:05:00.936Z,62.20
2018-09-17T15:07:29.738Z,63.40
2018-09-17T15:09:58.926Z,63.40
2018-09-17T15:12:27.757Z,63.20
2018-09-17T15:14:56.857Z,63.00
2018-09-17T15:17:28.754Z,61.60
2018-09-17T15:19:57.684Z,60.60
2018-09-17T15:22:26.598Z,60.40
2018-09-17T15:24:55.542Z,60.50
2018-09-17T15:27:24.388Z,59.90
2018-09-17T15:29:53.243Z,60.20
2018-09-17T15:32:22.186Z,60.20
2018-09-17T15:34:50.999Z,59.90
2018-09-17T15:37:19.861Z,61.30
2018-09-17T15:39:48.642Z,60.50
2018-09-17T15:42:17.500Z,59.60
2018-09-17T15:44:48.362Z,60.80
2018-09-17T15:47:17.105Z,62.50
2018-09-17T15:49:45.937Z,62.10
2018-09-17T15:52:14.766Z,63.30
2018-09-17T15:54:43.651Z,62.00
2018-09-17T16:00:08.138Z,60.70
2018-09-17T16:02:37.084Z,61.10
2018-09-17T16:05:06.038Z,60.70
2018-09-17T16:07:34.989Z,59.90
2018-09-17T16:10:04.526Z,60.50
2018-09-17T16:12:33.246Z,60.20
2018-09-17T16:15:06.521Z,60.70
2018-09-17T16:17:35.333Z,62.00
2018-09-17T16:20:04.457Z,62.20
2018-09-17T16:22:33.138Z,62.70
2018-09-17T16:25:02.056Z,62.80
2018-09-17T16:27:30.870Z,63.00
2018-09-17T16:29:59.785Z,63.40
2018-09-17T16:32:28.669Z,63.00
2018-09-17T16:34:57.617Z,62.50
2018-09-17T16:37:26.301Z,62.70
2018-09-17T16:39:55.434Z,63.10
2018-09-17T16:42:24.313Z,63.80
2018-09-17T16:44:53.112Z,64.20
2018-09-17T16:47:22.014Z,64.60
2018-09-17T16:49:50.969Z,65.00
2018-09-17T16:52:19.885Z,65.70
2018-09-17T16:54:48.642Z,65.80
2018-09-17T16:57:17.513Z,66.00
2018-09-17T16:59:46.327Z,68.80
2018-09-17T17:02:15.261Z,69.00
2018-09-17T17:04:44.114Z,69.60
2018-09-17T17:07:12.883Z,70.10
2018-09-17T17:09:41.749Z,69.10
2018-09-17T17:12:10.872Z,68.90
2018-09-17T17:14:39.615Z,69.10
2018-09-17T17:17:08.558Z,69.70
2018-09-17T17:19:37.497Z,69.70
2018-09-17T17:22:06.270Z,69.60
2018-09-17T17:24:35.334Z,70.50
2018-09-17T17:27:04.214Z,70.50
2018-09-17T17:29:33.134Z,71.60
2018-09-17T17:32:02.037Z,71.10
2018-09-17T17:34:30.972Z,71.50
2018-09-17T17:37:00.054Z,71.70
2018-09-17T17:39:28.837Z,71.90
2018-09-17T17:41:57.660Z,72.60
2018-09-17T17:44:26.773Z,73.20
2018-09-17T17:46:55.798Z,73.30
2018-09-17T17:49:24.733Z,73.40
2018-09-17T17:51:53.747Z,73.80
2018-09-17T17:54:22.755Z,75.00
2018-09-17T17:56:51.489Z,74.50
2018-09-17T17:59:20.329Z,74.70
2018-09-17T18:01:49.349Z,74.70
2018-09-17T18:04:18.376Z,75.80
2018-09-17T18:06:47.151Z,76.30
2018-09-17T18:09:15.997Z,76.90
2018-09-17T18:11:44.864Z,75.60
2018-09-17T18:14:13.749Z,75.90
2018-09-17T18:16:42.588Z,75.90
2018-09-17T18:19:11.525Z,76.40
2018-09-17T18:21:40.456Z,76.80
2018-09-17T18:24:09.254Z,76.80
2018-09-17T18:26:38.267Z,76.90
2018-09-17T18:29:07.269Z,76.70
2018-09-17T18:31:36.301Z,78.20
2018-09-17T18:34:05.285Z,77.70
2018-09-17T18:36:40.615Z,79.10
2018-09-17T18:39:10.237Z,79.20
2018-09-17T18:41:39.359Z,79.60
2018-09-17T18:44:08.082Z,78.70
2018-09-17T18:46:36.850Z,79.20
2018-09-17T18:49:06.050Z,80.20
2018-09-17T18:51:35.008Z,80.10
2018-09-17T18:54:03.951Z,79.90
2018-09-17T18:56:33.731Z,80.60
2018-09-17T18:59:02.692Z,82.50
2018-09-17T19:01:31.757Z,81.60
2018-09-17T19:04:02.840Z,82.00
2018-09-17T19:06:31.717Z,80.80
2018-09-17T19:09:00.871Z,81.60
2018-09-17T19:11:29.788Z,82.50
2018-09-17T19:14:03.840Z,83.50
2018-09-17T19:16:38.061Z,82.40
2018-09-17T19:19:07.146Z,82.40
2018-09-17T19:21:41.492Z,83.60
2018-09-17T19:24:10.358Z,83.80
2018-09-17T19:26:39.443Z,83.60
2018-09-17T19:29:13.756Z,85.00
2018-09-17T19:31:42.797Z,83.60
2018-09-17T19:34:11.616Z,85.20
2018-09-17T19:36:40.379Z,85.20
2018-09-17T19:39:14.721Z,85.30
2018-09-17T19:41:43.912Z,84.50
2018-09-17T19:44:14.984Z,85.40
2018-09-17T19:46:43.911Z,85.10
2018-09-17T19:49:12.881Z,85.90
2018-09-17T19:51:47.067Z,86.40
2018-09-17T19:54:16.033Z,86.40
2018-09-17T19:56:44.750Z,86.60
2018-09-17T19:59:19.185Z,86.60
2018-09-17T20:01:48.108Z,87.10
2018-09-17T20:04:22.224Z,87.30
2018-09-17T20:06:51.026Z,87.40
2018-09-17T20:09:19.885Z,87.80
2018-09-17T20:11:48.866Z,87.40
2018-09-17T20:14:17.861Z,87.40
2018-09-17T20:16:46.998Z,87.90
2018-09-17T20:19:16.071Z,88.20
2018-09-17T20:21:44.921Z,88.90
2018-09-17T20:24:13.838Z,88.80
2018-09-17T20:26:42.718Z,89.00
2018-09-17T20:29:11.829Z,89.20
2018-09-17T20:31:40.832Z,88.90
2018-09-17T20:34:09.798Z,89.60
2018-09-17T20:36:38.661Z,89.10
2018-09-17T20:39:08.522Z,89.00
2018-09-17T20:41:37.478Z,88.60
2018-09-17T20:44:06.390Z,88.60
2018-09-17T20:46:35.377Z,89.20
2018-09-17T20:49:04.236Z,89.50
2018-09-17T20:51:33.188Z,90.00
2018-09-17T20:54:02.081Z,90.10
2018-09-17T20:56:30.838Z,90.00
2018-09-17T20:58:59.813Z,89.30
2018-09-17T21:01:28.805Z,90.00
2018-09-17T21:03:57.590Z,90.50
2018-09-17T21:06:26.590Z,90.50
2018-09-17T21:08:55.533Z,90.40
2018-09-17T21:11:24.549Z,90.30
2018-09-17T21:13:53.429Z,90.30
2018-09-17T21:16:22.352Z,90.20
2018-09-17T21:18:51.358Z,90.40
2018-09-17T21:21:20.261Z,90.50
2018-09-17T21:23:49.159Z,90.60
2018-09-17T21:26:18.149Z,90.80
2018-09-17T21:28:47.326Z,90.90
2018-09-17T21:31:16.354Z,90.80
2018-09-17T21:33:45.312Z,91.20
2018-09-17T21:36:14.134Z,91.20
2018-09-17T21:38:42.961Z,91.30
2018-09-17T21:41:11.948Z,91.30
2018-09-17T21:43:41.083Z,91.40
2018-09-17T21:46:10.442Z,91.50
2018-09-17T21:48:39.388Z,91.00
2018-09-17T21:51:08.251Z,91.20
2018-09-17T21:53:37.181Z,91.40
2018-09-17T21:56:06.048Z,91.30
2018-09-17T21:58:34.858Z,91.40
2018-09-17T22:01:04.453Z,91.60
2018-09-17T22:03:34.243Z,91.60
2018-09-17T22:06:03.149Z,91.70
2018-09-17T22:08:32.003Z,91.50
2018-09-17T22:11:00.825Z,91.60
2018-09-17T22:13:29.713Z,91.70
2018-09-17T22:15:58.560Z,91.60
2018-09-17T22:18:27.393Z,92.00
2018-09-17T22:20:56.370Z,92.30
2018-09-17T22:23:25.294Z,92.60
2018-09-17T22:25:54.086Z,92.20
2018-09-17T22:28:22.872Z,92.40
2018-09-17T22:30:51.662Z,92.70
2018-09-17T22:33:20.685Z,92.60
2018-09-17T22:35:49.572Z,92.80
2018-09-17T22:38:18.545Z,92.80
2018-09-17T22:40:47.489Z,92.50
2018-09-17T22:43:16.294Z,92.60
2018-09-17T22:45:45.109Z,92.50
2018-09-17T22:48:13.872Z,92.80
2018-09-17T22:50:42.753Z,93.00
2018-09-17T22:53:11.666Z,93.20
2018-09-17T22:55:40.621Z,93.20
2018-09-17T22:58:10.761Z,93.20
2018-09-17T23:00:39.612Z,93.40
2018-09-17T23:03:08.375Z,93.50
2018-09-17T23:05:37.301Z,93.40
2018-09-17T23:08:06.262Z,93.40
2018-09-17T23:10:35.222Z,93.50
2018-09-17T23:13:04.047Z,93.50
2018-09-17T23:15:32.929Z,93.50
2018-09-17T23:18:01.889Z,93.70
2018-09-17T23:20:30.729Z,93.80
2018-09-17T23:22:59.752Z,93.80
2018-09-17T23:25:28.590Z,93.50
2018-09-17T23:27:57.404Z,93.90
2018-09-17T23:30:26.338Z,94.00
2018-09-17T23:32:55.198Z,93.90
2018-09-17T23:35:24.074Z,94.10
2018-09-17T23:37:52.914Z,94.30
2018-09-17T23:40:21.858Z,94.30
2018-09-17T23:42:50.713Z,94.20
2018-09-17T23:45:19.613Z,94.40
2018-09-17T23:47:48.494Z,94.50
2018-09-17T23:50:17.365Z,94.50
2018-09-17T23:52:46.280Z,94.70
2018-09-17T23:55:15.102Z,94.70
2018-09-17T23:57:43.953Z,94.60
